Time;durP1;ratioP1;P1;durP2;ratioP2;P2;SDS_P1;SDS_P2;PMS_P1;PMS_P2;Temp;Humidity;BMP_temperature;BMP_pressure;BME280_temperature;BME280_humidity;BME280_pressure;Samples;Min_cycle;Max_cycle;Signal;HPM_P1;HPM_P2
2022/11/20 00:00:19;;;;;;;3.80;3.50;;;8.80;56.00;;;;;;20508;6783;299932;-68
2022/11/20 00:02:55;;;;;;;3.67;3.37;;;8.80;55.90;;;;;;20886;6752;117022;-68
2022/11/20 00:05:31;;;;;;;4.07;3.70;;;8.70;56.10;;;;;;20672;6752;305608;-68
2022/11/20 00:08:06;;;;;;;2.97;2.77;;;8.80;56.00;;;;;;20821;6766;117030;-68
2022/11/20 00:10:42;;;;;;;3.53;3.13;;;8.70;56.10;;;;;;20812;6751;117845;-68
2022/11/20 00:13:17;;;;;;;4.13;3.43;;;8.40;56.60;;;;;;20661;6756;329698;-68
2022/11/20 00:15:56;;;;;;;3.60;3.40;;;8.50;56.60;;;;;;20769;6771;119308;-68
2022/11/20 00:18:31;;;;;;;3.00;2.80;;;8.40;56.50;;;;;;20872;6767;118033;-68
2022/11/20 00:21:07;;;;;;;3.40;3.20;;;8.20;56.90;;;;;;20718;6767;118473;-68
2022/11/20 00:23:42;;;;;;;3.70;3.40;;;8.00;57.40;;;;;;20675;6746;316198;-67
2022/11/20 00:26:18;;;;;;;3.58;3.37;;;8.20;57.70;;;;;;20547;6781;306397;-68
2022/11/20 00:28:54;;;;;;;3.33;3.03;;;8.50;56.20;;;;;;20860;6751;117366;-68
2022/11/20 00:31:29;;;;;;;3.20;3.00;;;8.50;56.20;;;;;;20459;6767;310040;-67
2022/11/20 00:34:05;;;;;;;3.55;3.35;;;8.50;55.90;;;;;;20661;6749;297502;-68
2022/11/20 00:36:41;;;;;;;3.00;2.80;;;8.70;55.30;;;;;;20852;6761;116850;-68
2022/11/20 00:39:17;;;;;;;3.35;3.20;;;8.70;55.30;;;;;;20680;6746;276583;-67
2022/11/20 00:41:53;;;;;;;3.00;2.90;;;8.90;55.20;;;;;;20424;6761;279540;-67
2022/11/20 00:44:29;;;;;;;3.60;3.30;;;8.90;54.70;;;;;;20638;6761;306200;-67
2022/11/20 00:47:05;;;;;;;3.10;2.90;;;8.90;55.20;;;;;;20799;6776;117348;-66
2022/11/20 00:49:41;;;;;;;3.33;3.12;;;8.90;54.30;;;;;;20576;6774;308262;-67
2022/11/20 00:52:17;;;;;;;3.55;3.25;;;9.10;54.00;;;;;;20603;6756;309852;-67
2022/11/20 00:54:52;;;;;;;3.00;2.80;;;9.00;53.90;;;;;;20767;6776;117384;-67
2022/11/20 00:57:28;;;;;;;2.93;2.80;;;8.80;54.20;;;;;;20792;6776;117591;-69
2022/11/20 01:00:04;;;;;;;3.40;3.10;;;8.50;55.00;;;;;;20556;6779;338464;-68
2022/11/20 01:02:40;;;;;;;3.10;2.90;;;8.50;54.80;;;;;;20641;6757;279417;-69
2022/11/20 01:05:15;;;;;;;3.40;3.20;;;8.80;54.20;;;;;;20551;6786;334726;-69
2022/11/20 01:07:52;;;;;;;2.70;2.60;;;8.70;53.80;;;;;;20766;6789;125210;-68
2022/11/20 01:10:27;;;;;;;2.93;2.63;;;8.70;53.80;;;;;;20701;6779;117539;-68
2022/11/20 01:16:02;;;;;;;3.40;3.20;;;8.40;55.20;;;;;;20538;6770;308109;-68
2022/11/20 01:18:37;;;;;;;3.70;3.50;;;8.70;54.50;;;;;;20605;6767;295412;-68
2022/11/20 01:21:15;;;;;;;3.17;3.00;;;8.90;54.00;;;;;;20689;6767;117313;-68
2022/11/20 01:23:51;;;;;;;3.50;3.30;;;8.60;54.20;;;;;;20586;6767;335670;-68
2022/11/20 01:26:27;;;;;;;3.20;3.00;;;8.60;54.10;;;;;;20795;6779;117079;-68
2022/11/20 01:29:02;;;;;;;3.92;3.70;;;8.40;54.40;;;;;;20675;6752;305908;-68
2022/11/20 01:31:38;;;;;;;3.60;3.40;;;8.30;54.70;;;;;;20638;6782;117356;-67
2022/11/20 01:34:14;;;;;;;3.03;2.83;;;8.30;54.70;;;;;;20915;6737;118401;-68
2022/11/20 01:36:50;;;;;;;3.83;3.50;;;8.00;55.40;;;;;;20651;6752;335362;-68
2022/11/20 01:39:25;;;;;;;3.85;3.65;;;8.10;55.60;;;;;;20618;6767;306768;-68
2022/11/20 01:44:57;;;;;;;3.90;3.60;;;8.60;54.60;;;;;;20821;6770;117035;-67
2022/11/20 01:47:43;;;;;;;3.70;3.50;;;8.30;54.80;;;;;;20819;6770;116886;-67
2022/11/20 01:50:18;;;;;;;3.50;3.30;;;8.00;55.60;;;;;;20692;6838;117840;-66
2022/11/20 01:53:00;;;;;;;4.10;3.70;;;7.70;56.30;;;;;;20672;6749;335685;-66
2022/11/20 01:55:38;;;;;;;4.30;4.00;;;7.80;56.40;;;;;;20646;6746;307704;-67
2022/11/20 01:58:14;;;;;;;4.37;4.07;;;8.10;55.70;;;;;;20571;6776;307871;-67
2022/11/20 02:00:50;;;;;;;3.77;3.60;;;8.40;55.00;;;;;;20706;6778;117148;-67
2022/11/20 02:03:25;;;;;;;4.00;3.70;;;8.20;55.10;;;;;;20777;6785;117173;-67
2022/11/20 02:06:11;;;;;;;4.57;4.27;;;7.90;56.60;;;;;;20606;6765;310424;-67
2022/11/20 02:08:47;;;;;;;4.10;3.80;;;7.90;56.00;;;;;;20833;6765;118551;-67
2022/11/20 02:11:23;;;;;;;4.37;4.18;;;7.80;56.00;;;;;;20420;6771;328765;-67
2022/11/20 02:13:59;;;;;;;4.07;3.87;;;7.80;56.00;;;;;;20756;6783;117341;-66
2022/11/20 02:16:34;;;;;;;3.90;3.57;;;7.70;56.10;;;;;;20852;6759;117407;-66
2022/11/20 02:19:11;;;;;;;4.80;4.40;;;7.60;57.00;;;;;;20647;6759;306412;-67
2022/11/20 02:21:46;;;;;;;4.00;3.67;;;7.50;56.90;;;;;;20734;6759;117358;-67
2022/11/20 02:24:22;;;;;;;4.80;4.50;;;7.50;56.90;;;;;;20734;6730;305264;-68
2022/11/20 02:27:01;;;;;;;4.68;4.37;;;7.60;56.80;;;;;;20738;6730;275862;-66
2022/11/20 02:29:53;;;;;;;4.55;4.35;;;7.90;56.10;;;;;;20629;6801;307926;-67
2022/11/20 02:32:28;;;;;;;4.70;4.40;;;8.10;55.40;;;;;;20735;6730;305804;-67
2022/11/20 02:35:10;;;;;;;4.50;4.20;;;8.30;54.80;;;;;;20734;6730;280218;-67
2022/11/20 02:37:49;;;;;;;4.72;4.43;;;8.40;54.50;;;;;;20636;6805;307301;-67
2022/11/20 02:40:24;;;;;;;4.57;4.28;;;8.40;54.10;;;;;;20660;6730;309655;-68
2022/11/20 02:43:00;;;;;;;4.10;3.80;;;8.50;53.90;;;;;;20950;6730;120277;-67
2022/11/20 02:45:35;;;;;;;4.57;4.22;;;8.20;54.40;;;;;;20721;6749;276099;-68
2022/11/20 02:48:12;;;;;;;3.70;3.50;;;7.90;55.10;;;;;;20908;6730;116534;-67
2022/11/20 02:50:47;;;;;;;4.30;4.00;;;7.90;55.10;;;;;;20640;6730;303944;-68
2022/11/20 02:53:24;;;;;;;3.67;3.40;;;7.80;55.50;;;;;;20935;6734;116796;-68
2022/11/20 02:55:59;;;;;;;3.53;3.33;;;7.70;55.40;;;;;;20927;6730;117026;-68
2022/11/20 02:58:35;;;;;;;3.33;3.13;;;7.50;56.20;;;;;;20932;6749;121120;-67
2022/11/20 03:01:10;;;;;;;4.25;3.95;;;7.20;56.80;;;;;;20613;6730;338459;-68
2022/11/20 03:03:48;;;;;;;4.20;3.80;;;7.30;56.70;;;;;;20949;6730;116622;-67
2022/11/20 03:06:22;;;;;;;3.90;3.60;;;7.30;56.70;;;;;;20745;6730;281451;-67
2022/11/20 03:08:59;;;;;;;3.50;3.30;;;7.50;56.60;;;;;;20956;6730;116737;-67
2022/11/20 03:11:34;;;;;;;3.50;3.30;;;7.40;56.50;;;;;;20789;6748;117361;-67
2022/11/20 03:14:10;;;;;;;3.57;3.27;;;7.30;57.10;;;;;;20697;6755;305398;-67
2022/11/20 03:16:45;;;;;;;3.65;3.42;;;7.40;56.70;;;;;;20709;6755;297419;-67
2022/11/20 03:19:21;;;;;;;3.27;3.13;;;7.80;55.90;;;;;;20913;6755;119114;-67
2022/11/20 03:21:57;;;;;;;3.60;3.40;;;7.70;55.90;;;;;;20505;6755;336453;-66
2022/11/20 03:24:32;;;;;;;3.53;3.33;;;7.80;55.60;;;;;;20656;6770;335915;-66
2022/11/20 03:27:08;;;;;;;2.80;2.63;;;8.00;54.90;;;;;;20773;6785;117006;-67
2022/11/20 03:29:43;;;;;;;3.00;2.80;;;8.00;55.30;;;;;;20763;6796;117443;-66
2022/11/20 03:32:19;;;;;;;3.30;3.00;;;7.70;56.00;;;;;;20857;6767;118230;-67
2022/11/20 03:34:54;;;;;;;3.23;3.03;;;7.50;56.50;;;;;;20706;6752;276996;-67
2022/11/20 03:37:30;;;;;;;3.50;3.30;;;7.70;56.00;;;;;;20705;6746;338823;-67
2022/11/20 03:40:06;;;;;;;3.20;3.00;;;8.00;55.00;;;;;;20809;6767;118129;-67
2022/11/20 03:42:45;;;;;;;3.20;3.00;;;7.70;55.80;;;;;;20944;6730;116975;-67
2022/11/20 03:45:21;;;;;;;3.40;3.20;;;7.70;55.80;;;;;;20729;6730;333662;-67
2022/11/20 03:47:57;;;;;;;3.37;2.97;;;7.80;55.60;;;;;;20925;6730;117690;-67
2022/11/20 03:50:33;;;;;;;3.03;2.83;;;7.90;55.60;;;;;;20670;6730;307126;-67
2022/11/20 03:53:09;;;;;;;3.13;2.90;;;8.40;54.40;;;;;;20713;6734;310724;-66
2022/11/20 03:55:45;;;;;;;2.57;2.47;;;8.40;54.40;;;;;;20897;6746;116763;-67
2022/11/20 03:58:20;;;;;;;2.57;2.37;;;8.30;54.60;;;;;;20866;6746;117100;-67
2022/11/20 04:00:56;;;;;;;2.63;2.53;;;8.20;55.30;;;;;;20791;6746;117033;-67
2022/11/20 04:03:31;;;;;;;2.30;2.20;;;7.90;55.80;;;;;;20931;6730;118160;-66
2022/11/20 04:06:07;;;;;;;2.60;2.40;;;7.80;56.30;;;;;;20912;6730;124023;-70
2022/11/20 04:08:43;;;;;;;2.80;2.60;;;7.70;56.70;;;;;;20930;6730;116906;-67
2022/11/20 04:11:18;;;;;;;2.60;2.50;;;7.60;57.00;;;;;;20784;6749;117283;-67
2022/11/20 04:13:54;;;;;;;2.53;2.33;;;7.50;57.10;;;;;;20831;6769;117189;-67
2022/11/20 04:16:29;;;;;;;2.83;2.63;;;7.50;57.40;;;;;;20641;6769;276895;-67
2022/11/20 04:19:06;;;;;;;2.90;2.70;;;8.20;55.80;;;;;;20642;6769;336021;-67
2022/11/20 04:21:41;;;;;;;2.80;2.60;;;8.20;55.80;;;;;;20747;6769;117355;-67
2022/11/20 04:24:17;;;;;;;2.20;2.10;;;8.20;55.70;;;;;;20887;6755;118028;-67
2022/11/20 04:26:52;;;;;;;3.40;2.00;;;8.00;56.10;;;;;;20913;6755;118678;-67
2022/11/20 04:29:29;;;;;;;2.70;2.40;;;8.10;55.80;;;;;;20690;6755;313544;-67
2022/11/20 04:32:04;;;;;;;2.50;2.30;;;8.00;55.70;;;;;;20663;6826;127289;-67
2022/11/20 04:34:41;;;;;;;2.50;2.33;;;8.30;55.20;;;;;;20657;6766;306759;-66
2022/11/20 04:37:16;;;;;;;2.57;2.47;;;8.20;55.10;;;;;;20668;6746;306127;-67
2022/11/20 04:39:52;;;;;;;2.53;2.33;;;8.60;54.20;;;;;;20846;6746;117576;-67
2022/11/20 04:42:31;;;;;;;2.60;2.40;;;8.50;54.40;;;;;;20684;6746;307346;-66
2022/11/20 04:45:06;;;;;;;2.30;2.10;;;8.60;54.30;;;;;;20893;6746;116659;-67
2022/11/20 04:47:42;;;;;;;2.37;2.23;;;8.50;54.60;;;;;;20882;6746;116680;-68
2022/11/20 04:50:18;;;;;;;2.30;2.20;;;8.40;54.80;;;;;;20584;6751;321218;-68
2022/11/20 04:52:54;;;;;;;2.30;2.20;;;8.40;54.80;;;;;;20878;6749;117948;-68
2022/11/20 04:55:29;;;;;;;2.00;1.90;;;8.40;54.90;;;;;;20942;6730;116976;-67
2022/11/20 04:58:06;;;;;;;2.08;1.98;;;8.30;55.00;;;;;;20697;6730;278253;-67
2022/11/20 05:00:41;;;;;;;1.97;1.87;;;8.30;54.90;;;;;;20833;6749;118589;-67
2022/11/20 05:03:17;;;;;;;2.33;2.12;;;8.30;55.00;;;;;;20691;6755;337702;-68
2022/11/20 05:05:52;;;;;;;2.00;1.90;;;8.40;54.40;;;;;;20666;6755;305666;-67
2022/11/20 05:08:28;;;;;;;2.07;1.97;;;8.70;53.60;;;;;;20906;6755;116943;-68
2022/11/20 05:11:04;;;;;;;2.13;1.90;;;8.60;53.90;;;;;;20804;6755;117129;-67
2022/11/20 05:13:39;;;;;;;2.77;2.30;;;8.40;54.70;;;;;;20878;6749;117809;-67
2022/11/20 05:16:18;;;;;;;2.20;2.10;;;8.10;55.10;;;;;;20708;6730;327788;-67
2022/11/20 05:18:54;;;;;;;2.50;2.10;;;8.30;54.70;;;;;;20953;6730;120610;-67
2022/11/20 05:21:33;;;;;;;2.40;2.20;;;8.30;54.80;;;;;;20595;6730;336830;-67
2022/11/20 05:24:08;;;;;;;2.00;1.90;;;8.40;54.30;;;;;;20704;6730;276953;-67
2022/11/20 05:26:45;;;;;;;2.03;1.93;;;9.00;52.80;;;;;;20714;6730;305050;-67
2022/11/20 05:29:20;;;;;;;2.20;2.10;;;9.00;52.80;;;;;;20712;6749;305158;-68
2022/11/20 05:31:56;;;;;;;2.10;2.00;;;9.20;52.40;;;;;;20746;6730;117424;-67
2022/11/20 05:34:32;;;;;;;2.00;1.90;;;9.00;52.80;;;;;;20730;6729;338195;-68
2022/11/20 05:37:07;;;;;;;2.27;2.17;;;9.00;52.50;;;;;;20939;6729;117154;-67
2022/11/20 05:39:43;;;;;;;2.20;2.10;;;8.90;53.00;;;;;;20929;6729;116570;-68
2022/11/20 05:42:31;;;;;;;2.05;1.95;;;8.60;53.70;;;;;;20698;6733;305544;-68
2022/11/20 05:45:08;;;;;;;2.00;1.90;;;8.60;53.40;;;;;;20948;6730;117156;-69
2022/11/20 05:47:43;;;;;;;2.15;2.00;;;8.60;53.40;;;;;;20717;6730;305809;-68
2022/11/20 05:50:19;;;;;;;2.17;1.70;;;8.70;53.20;;;;;;20879;6729;117418;-68
2022/11/20 05:52:55;;;;;;;1.80;1.80;;;8.60;53.40;;;;;;20939;6730;117178;-68
2022/11/20 05:55:30;;;;;;;1.60;1.50;;;8.30;53.90;;;;;;20941;6730;117333;-68
2022/11/20 05:58:06;;;;;;;2.20;2.10;;;8.10;54.50;;;;;;20703;6730;305008;-68
2022/11/20 06:00:42;;;;;;;1.87;1.77;;;8.60;53.30;;;;;;20653;6730;278069;-68
2022/11/20 06:03:18;;;;;;;1.80;1.70;;;8.60;53.30;;;;;;20942;6730;117727;-68
2022/11/20 06:05:53;;;;;;;2.00;1.90;;;8.50;53.40;;;;;;20714;6730;305311;-68
2022/11/20 06:08:29;;;;;;;2.00;1.90;;;8.60;52.90;;;;;;20710;6749;307236;-68
2022/11/20 06:11:08;;;;;;;2.00;1.90;;;8.80;52.50;;;;;;20627;6730;277971;-68
2022/11/20 06:13:43;;;;;;;1.90;1.80;;;9.00;52.10;;;;;;20947;6730;117457;-67
2022/11/20 06:16:19;;;;;;;3.20;1.70;;;8.80;52.40;;;;;;20912;6748;117469;-68
2022/11/20 06:18:54;;;;;;;9.60;2.13;;;8.50;53.20;;;;;;20941;6730;117461;-67
2022/11/20 06:21:31;;;;;;;1.80;1.70;;;8.40;53.60;;;;;;20588;6730;340051;-67
2022/11/20 06:24:06;;;;;;;2.90;1.80;;;8.30;53.50;;;;;;20706;6730;307632;-67
2022/11/20 06:27:09;;;;;;;2.00;1.80;;;8.70;52.90;;;;;;20911;6749;116765;-68
2022/11/20 06:29:45;;;;;;;1.87;1.77;;;8.60;53.00;;;;;;20928;6730;119311;-68
2022/11/20 06:32:21;;;;;;;2.03;1.92;;;8.20;53.70;;;;;;20656;6730;334466;-68
2022/11/20 06:34:56;;;;;;;1.87;1.77;;;8.40;53.70;;;;;;20728;6730;305183;-68
2022/11/20 06:37:32;;;;;;;1.65;1.55;;;8.70;52.90;;;;;;20648;6749;304238;-67
2022/11/20 06:40:08;;;;;;;1.90;1.80;;;8.90;52.30;;;;;;20824;6749;127096;-68
2022/11/20 06:42:44;;;;;;;1.80;1.70;;;8.50;53.20;;;;;;20894;6730;118834;-68
2022/11/20 06:45:20;;;;;;;1.90;1.80;;;8.50;54.00;;;;;;20722;6729;275675;-68
2022/11/20 06:47:55;;;;;;;1.90;1.80;;;8.50;53.10;;;;;;20692;6748;305466;-69
2022/11/20 06:50:31;;;;;;;2.13;1.63;;;8.80;52.50;;;;;;20876;6729;117568;-70
2022/11/20 06:53:07;;;;;;;1.80;1.70;;;8.70;52.80;;;;;;20947;6729;117089;-66
2022/11/20 06:55:46;;;;;;;1.40;1.40;;;8.20;54.10;;;;;;20944;6730;121998;-67
2022/11/20 06:58:21;;;;;;;1.47;1.37;;;8.20;54.10;;;;;;20932;6729;116963;-67
2022/11/20 07:01:00;;;;;;;1.90;1.80;;;8.20;54.30;;;;;;20632;6730;336413;-67
2022/11/20 07:03:36;;;;;;;1.77;1.67;;;8.20;54.30;;;;;;20947;6730;118055;-68
2022/11/20 07:06:12;;;;;;;1.60;1.50;;;8.20;54.30;;;;;;20932;6730;116895;-68
2022/11/20 07:08:47;;;;;;;1.80;1.70;;;8.10;54.80;;;;;;20725;6730;334579;-67
2022/11/20 07:11:24;;;;;;;1.70;1.50;;;8.20;54.50;;;;;;20809;6730;116954;-68
2022/11/20 07:13:59;;;;;;;1.47;1.47;;;8.20;54.40;;;;;;20921;6730;117015;-69
2022/11/20 07:16:35;;;;;;;2.00;1.90;;;8.10;54.90;;;;;;20707;6634;336125;-68
2022/11/20 07:19:10;;;;;;;1.70;1.60;;;8.30;54.70;;;;;;20934;6730;116955;-66
2022/11/20 07:21:46;;;;;;;2.45;2.08;;;8.30;54.70;;;;;;20560;6730;306926;-66
2022/11/20 07:24:42;;;;;;;1.83;1.73;;;8.50;54.30;;;;;;20734;6634;306526;31
2022/11/20 07:27:17;;;;;;;17.60;15.80;;;8.80;53.60;;;;;;20611;6761;306388;-75
2022/11/20 07:29:53;;;;;;;8.67;7.77;;;9.10;52.80;;;;;;20766;6776;118078;-74
2022/11/20 07:32:28;;;;;;;2.90;2.70;;;9.00;53.10;;;;;;20849;6761;117600;-76
2022/11/20 07:35:05;;;;;;;2.27;2.17;;;8.80;53.40;;;;;;20574;6763;307677;-79
2022/11/20 07:37:41;;;;;;;4.43;4.12;;;8.80;53.40;;;;;;20672;6752;339120;-80
2022/11/20 07:40:16;;;;;;;3.00;2.80;;;9.10;52.90;;;;;;20631;6767;319803;-78
2022/11/20 07:42:52;;;;;;;2.80;2.60;;;9.30;52.10;;;;;;20791;6766;118116;-79
2022/11/20 07:45:28;;;;;;;2.20;2.00;;;9.20;52.40;;;;;;20445;6786;341252;-80
2022/11/20 07:48:04;;;;;;;2.47;2.37;;;9.20;52.40;;;;;;20597;6767;310686;-80
2022/11/20 07:50:39;;;;;;;1.73;1.63;;;9.40;52.20;;;;;;20635;6763;307242;-80
2022/11/20 07:53:20;;;;;;;1.50;1.40;;;9.50;51.70;;;;;;20899;6746;116897;-83
2022/11/20 07:55:53;;;;;;;2.10;2.00;;;9.40;52.20;;;;;;20488;6754;336852;-79
2022/11/20 07:58:32;;;;;;;2.50;2.00;;;9.40;52.30;;;;;;20671;6753;277956;-75
2022/11/20 08:01:05;;;;;;;1.90;1.83;;;9.60;51.80;;;;;;20711;6753;302577;-74
2022/11/20 08:03:40;;;;;;;2.23;2.13;;;9.80;51.40;;;;;;20912;6757;116998;-76
2022/11/20 08:06:19;;;;;;;1.80;1.70;;;9.60;51.80;;;;;;20380;6772;313709;-76
2022/11/20 08:08:52;;;;;;;1.75;1.65;;;9.60;51.90;;;;;;20612;6767;335794;-74
2022/11/20 08:14:24;;;;;;;1.90;1.80;;;10.00;50.00;;;;;;20602;6763;307086;-74
2022/11/20 08:17:01;;;;;;;1.53;1.50;;;10.20;49.30;;;;;;20630;6760;279763;-75
2022/11/20 08:19:36;;;;;;;1.80;1.70;;;10.30;48.80;;;;;;20631;6760;306614;-75
2022/11/20 08:22:12;;;;;;;2.10;2.00;;;10.40;49.00;;;;;;20612;6760;307052;-75
2022/11/20 08:24:48;;;;;;;1.70;1.60;;;10.50;48.60;;;;;;20809;6760;117378;-76
2022/11/20 08:27:25;;;;;;;1.80;1.70;;;9.90;52.00;;;;;;20836;6760;117133;-75
2022/11/20 08:30:01;;;;;;;2.00;1.90;;;9.80;51.20;;;;;;20590;6774;305386;-74
2022/11/20 08:32:37;;;;;;;2.00;1.90;;;10.10;50.10;;;;;;20642;6759;305554;-74
2022/11/20 08:35:12;;;;;;;3.40;2.90;;;10.10;50.10;;;;;;20750;6774;117086;-75
2022/11/20 08:37:48;;;;;;;1.30;1.20;;;9.90;51.40;;;;;;20859;6760;118218;-75
2022/11/20 08:40:24;;;;;;;1.47;1.17;;;9.60;52.00;;;;;;20829;6761;117277;-75
2022/11/20 08:42:59;;;;;;;1.50;1.50;;;9.40;52.70;;;;;;20675;6746;336449;-73
2022/11/20 08:45:35;;;;;;;2.20;2.10;;;9.50;52.20;;;;;;20725;6776;118908;-75
2022/11/20 08:48:15;;;;;;;1.23;1.20;;;9.30;53.80;;;;;;20796;6782;117547;-77
2022/11/20 08:50:54;;;;;;;1.45;1.45;;;9.40;52.30;;;;;;20583;6786;278060;-75
2022/11/20 08:53:27;;;;;;;1.40;1.40;;;9.40;52.30;;;;;;20822;6765;116961;-75
2022/11/20 08:56:04;;;;;;;1.10;1.10;;;9.40;52.50;;;;;;20635;6778;117254;-76
2022/11/20 08:58:39;;;;;;;1.00;1.00;;;9.30;53.10;;;;;;20783;6789;117369;-75
2022/11/20 09:01:15;;;;;;;1.37;1.27;;;9.10;53.60;;;;;;20791;6781;117443;-76
2022/11/20 09:03:51;;;;;;;1.33;1.30;;;8.90;54.10;;;;;;20595;6772;335561;-79
2022/11/20 09:06:26;;;;;;;1.40;1.40;;;9.20;53.90;;;;;;20514;6759;336670;-76
2022/11/20 09:09:02;;;;;;;1.40;1.30;;;9.60;53.30;;;;;;20571;6780;277409;-76
2022/11/20 09:11:41;;;;;;;1.55;1.45;;;9.90;52.40;;;;;;20600;6771;307494;-76
2022/11/20 09:14:13;;;;;;;3.53;1.40;;;10.20;51.60;;;;;;20782;6774;116954;-76
2022/11/20 09:16:49;;;;;;;1.45;1.45;;;10.20;52.30;;;;;;20380;6845;337930;-76
2022/11/20 09:19:28;;;;;;;1.20;1.20;;;10.30;51.20;;;;;;20798;6776;117415;-80
2022/11/20 09:22:05;;;;;;;1.40;1.30;;;10.20;51.30;;;;;;20580;6774;335609;-80
2022/11/20 09:24:40;;;;;;;1.30;1.20;;;10.20;50.70;;;;;;20515;6793;282183;-80
2022/11/20 09:27:23;;;;;;;1.20;1.20;;;10.50;50.20;;;;;;20876;6763;117268;-80
2022/11/20 09:29:59;;;;;;;1.23;1.23;;;10.30;50.50;;;;;;20624;6746;307992;-77
2022/11/20 09:32:35;;;;;;;1.17;1.17;;;10.40;50.30;;;;;;20619;6751;278937;-79
2022/11/20 09:35:10;;;;;;;1.40;1.30;;;10.60;50.10;;;;;;20590;6766;309387;-79
2022/11/20 09:37:46;;;;;;;2.77;1.40;;;10.80;50.40;;;;;;20861;6749;119344;-80
2022/11/20 09:40:22;;;;;;;1.50;1.40;;;10.60;50.70;;;;;;20524;6746;277926;-82
2022/11/20 09:43:21;;;;;;;1.20;1.20;;;10.70;50.50;;;;;;20834;6761;117559;-80
2022/11/20 09:46:22;;;;;;;1.10;1.10;;;10.50;50.90;;;;;;20454;6763;308317;-78
2022/11/20 09:49:00;;;;;;;1.52;1.42;;;10.60;50.50;;;;;;20528;6793;278736;-78
2022/11/20 09:51:39;;;;;;;1.60;1.50;;;10.70;49.90;;;;;;20537;6776;307691;-80
2022/11/20 09:54:18;;;;;;;1.60;1.50;;;10.80;49.70;;;;;;20543;6785;305218;-78
2022/11/20 09:56:54;;;;;;;1.60;1.60;;;10.90;49.70;;;;;;20547;6781;308171;-77
2022/11/20 09:59:36;;;;;;;1.13;1.03;;;10.90;49.50;;;;;;20738;6776;117584;-77
2022/11/20 10:02:15;;;;;;;1.30;1.20;;;10.70;50.10;;;;;;20551;6776;294150;-75
2022/11/20 10:05:04;;;;;;;1.17;1.10;;;10.60;50.50;;;;;;20798;6759;116924;-76
2022/11/20 10:07:59;;;;;;;1.30;1.20;;;10.40;51.10;;;;;;20867;6746;120399;-75
2022/11/20 10:10:45;;;;;;;4.80;4.50;;;10.00;51.70;;;;;;20630;6761;279167;-73
2022/11/20 10:13:34;;;;;;;2.63;2.53;;;10.10;52.10;;;;;;20599;6767;306988;-74
2022/11/20 10:16:14;;;;;;;3.15;3.05;;;10.40;52.30;;;;;;20477;6771;308707;-76
2022/11/20 10:19:26;;;;;;;3.67;3.47;;;10.50;52.10;;;;;;20768;6786;116969;-74
2022/11/20 10:22:15;;;;;;;3.70;1.93;;;10.50;52.00;;;;;;20850;6755;118795;-78
2022/11/20 10:25:05;;;;;;;2.63;2.53;;;10.10;52.80;;;;;;20615;6756;310159;-77
2022/11/20 10:28:07;;;;;;;2.30;2.20;;;10.10;53.30;;;;;;20853;6761;117360;-75
2022/11/20 10:30:43;;;;;;;2.20;2.10;;;10.00;53.20;;;;;;20852;6761;117116;-77
2022/11/20 10:33:22;;;;;;;1.10;1.10;;;9.80;54.80;;;;;;20860;6761;117411;-76
2022/11/20 10:36:13;;;;;;;1.50;1.40;;;9.60;55.40;;;;;;20676;6761;117297;-77
2022/11/20 10:39:07;;;;;;;1.20;1.20;;;9.50;55.90;;;;;;20567;6817;116850;-77
2022/11/20 10:41:42;;;;;;;1.80;1.70;;;9.30;56.20;;;;;;19608;7085;322658;-77
2022/11/20 10:47:21;;;;;;;2.20;2.10;;;10.40;53.70;;;;;;20687;6731;308859;-77
2022/11/20 10:49:54;;;;;;;2.80;2.70;;;10.40;53.70;;;;;;20684;6746;278932;-77
2022/11/20 10:52:42;;;;;;;4.47;4.07;;;10.70;53.40;;;;;;20664;6752;277706;-76
2022/11/20 10:55:44;;;;;;;5.00;4.60;;;10.80;53.00;;;;;;20546;6752;311538;-76
2022/11/20 10:58:36;;;;;;;2.20;1.80;;;11.00;52.20;;;;;;20790;6767;118134;-75
2022/11/20 11:01:15;;;;;;;4.03;3.83;;;10.70;52.70;;;;;;20562;6776;307641;-75
2022/11/20 11:03:51;;;;;;;4.55;4.32;;;10.70;52.90;;;;;;20623;6771;308392;-76
2022/11/20 11:06:30;;;;;;;2.03;1.93;;;10.90;53.30;;;;;;20662;6781;117435;-76
2022/11/20 11:09:11;;;;;;;3.50;3.30;;;10.80;52.80;;;;;;20548;6793;121875;-72
2022/11/20 11:11:47;;;;;;;2.00;1.90;;;10.50;53.40;;;;;;20748;6781;117132;-73
2022/11/20 11:14:24;;;;;;;3.00;2.80;;;10.30;53.90;;;;;;20804;6763;116967;-73
2022/11/20 11:16:59;;;;;;;1.67;1.58;;;10.10;54.50;;;;;;20636;6763;335649;-72
2022/11/20 11:19:34;;;;;;;1.83;1.73;;;10.30;54.00;;;;;;20579;6782;308720;-73
2022/11/20 11:22:09;;;;;;;3.47;3.27;;;10.70;53.30;;;;;;20565;6782;305941;-74
2022/11/20 11:24:51;;;;;;;3.00;2.80;;;11.00;52.80;;;;;;20763;6781;117158;-72
2022/11/20 11:27:27;;;;;;;1.40;1.30;;;11.00;53.00;;;;;;20627;6767;306819;-73
2022/11/20 11:30:13;;;;;;;1.90;1.80;;;11.10;52.40;;;;;;20543;6785;307583;-72
2022/11/20 11:32:48;;;;;;;1.27;1.27;;;11.40;52.50;;;;;;20612;6766;338948;-72
2022/11/20 11:35:27;;;;;;;1.30;1.20;;;11.70;52.40;;;;;;20521;6770;309227;-71
2022/11/20 11:38:07;;;;;;;1.57;1.07;;;12.20;53.60;;;;;;20839;6771;117408;-71
2022/11/20 11:40:42;;;;;;;1.00;1.00;;;12.10;52.70;;;;;;20741;6800;117466;-71
2022/11/20 11:46:44;;;;;;;1.25;1.25;;;11.90;53.10;;;;;;20431;6781;302609;-71
2022/11/20 11:49:20;;;;;;;1.20;1.10;;;12.10;51.30;;;;;;20578;6781;305716;-74
2022/11/20 11:52:13;;;;;;;1.10;1.07;;;12.40;49.70;;;;;;20792;6766;263569;-71
2022/11/20 11:54:49;;;;;;;8.20;6.40;;;12.60;48.60;;;;;;20582;6766;307360;-73
2022/11/20 11:57:41;;;;;;;13.10;8.87;;;12.60;48.60;;;;;;20793;6786;117076;-74
2022/11/20 12:00:16;;;;;;;2.10;1.90;;;12.50;49.10;;;;;;20555;6772;298152;-75
2022/11/20 12:02:53;;;;;;;1.10;1.00;;;12.30;47.70;;;;;;20839;6763;117129;-71
2022/11/20 12:05:32;;;;;;;2.30;1.20;;;12.40;47.80;;;;;;20716;6778;116963;-73
2022/11/20 12:08:25;;;;;;;0.97;0.97;;;12.00;48.50;;;;;;20842;6759;117305;-72
2022/11/20 12:11:31;;;;;;;1.50;1.40;;;11.80;47.60;;;;;;20187;6837;281120;-71
2022/11/20 12:14:16;;;;;;;1.23;1.13;;;11.80;47.60;;;;;;20600;6759;335848;-71
2022/11/20 12:16:53;;;;;;;1.07;0.97;;;12.00;47.50;;;;;;20631;6828;117377;-72
2022/11/20 12:19:29;;;;;;;0.87;0.83;;;11.80;48.20;;;;;;20873;6749;116940;-77
2022/11/20 12:22:04;;;;;;;0.90;0.90;;;11.40;49.00;;;;;;20825;6757;117602;-74
2022/11/20 12:24:47;;;;;;;1.63;1.20;;;11.10;50.30;;;;;;20588;6766;308639;-73
2022/11/20 12:27:22;;;;;;;1.20;1.10;;;11.20;48.50;;;;;;20622;6766;279204;-75
2022/11/20 12:30:14;;;;;;;2.55;2.45;;;11.50;47.90;;;;;;20549;6832;306676;-74
2022/11/20 12:33:16;;;;;;;1.90;1.17;;;11.80;47.40;;;;;;20849;6761;117278;-72
2022/11/20 12:35:52;;;;;;;1.70;1.40;;;11.70;47.80;;;;;;20545;6761;312828;-75
2022/11/20 12:38:35;;;;;;;1.70;1.60;;;11.70;47.80;;;;;;20849;6761;119343;-76
2022/11/20 12:47:44;;;;;;;11.60;6.30;;;11.20;50.50;;;;;;20856;6761;116997;-76
2022/11/20 12:51:01;;;;;;;2.63;2.43;;;11.10;50.70;;;;;;20794;6775;117266;-75
2022/11/20 12:53:44;;;;;;;4.05;3.67;;;11.10;51.10;;;;;;20584;6778;280998;-73
2022/11/20 12:56:43;;;;;;;2.40;2.20;;;11.50;48.80;;;;;;20478;6759;277899;-76
2022/11/20 12:59:40;;;;;;;15.43;11.00;;;11.80;47.10;;;;;;20822;6744;123466;-71
2022/11/20 13:02:26;;;;;;;2.33;1.33;;;11.80;47.10;;;;;;20849;6763;118644;-75
2022/11/20 13:05:12;;;;;;;1.50;1.40;;;11.50;47.50;;;;;;20615;6745;306496;-72
2022/11/20 13:07:47;;;;;;;1.20;1.13;;;11.60;46.40;;;;;;20685;6745;278368;-74
2022/11/20 13:10:36;;;;;;;2.10;2.00;;;12.00;46.40;;;;;;20879;6744;117054;-71
2022/11/20 13:13:15;;;;;;;1.60;1.60;;;11.90;46.50;;;;;;20892;6745;117276;-71
2022/11/20 13:15:57;;;;;;;0.90;0.90;;;11.70;47.30;;;;;;20759;6763;116992;-72
2022/11/20 13:18:32;;;;;;;2.13;1.40;;;11.40;47.60;;;;;;20644;6768;309315;-72
2022/11/20 13:21:17;;;;;;;1.40;1.40;;;11.50;46.80;;;;;;20860;6769;118928;-72
2022/11/20 13:23:53;;;;;;;1.23;1.17;;;11.40;47.30;;;;;;20764;6778;117231;-73
2022/11/20 13:26:29;;;;;;;1.35;1.25;;;11.10;47.90;;;;;;20429;6778;307930;-71
2022/11/20 13:29:10;;;;;;;1.57;1.57;;;11.30;47.20;;;;;;20853;6759;116944;-71
2022/11/20 13:31:46;;;;;;;0.90;0.90;;;11.30;47.50;;;;;;20579;6775;308975;-71
2022/11/20 13:34:25;;;;;;;1.40;1.30;;;11.40;46.10;;;;;;20611;6760;306488;-71
2022/11/20 13:37:02;;;;;;;1.10;0.80;;;11.70;46.30;;;;;;20832;6779;116962;-72
2022/11/20 13:39:36;;;;;;;1.50;1.33;;;11.60;46.70;;;;;;20555;6774;335364;-72
2022/11/20 13:42:12;;;;;;;1.75;1.50;;;11.70;46.10;;;;;;20597;6759;300360;-72
2022/11/20 13:44:47;;;;;;;1.30;1.20;;;11.90;45.60;;;;;;20587;6760;301619;-73
2022/11/20 13:47:28;;;;;;;1.53;1.07;;;12.00;44.60;;;;;;20829;6760;117301;-76
2022/11/20 13:50:04;;;;;;;1.33;1.00;;;11.80;45.40;;;;;;20570;6765;308770;-75
2022/11/20 13:52:43;;;;;;;1.20;1.10;;;11.80;45.30;;;;;;20699;6801;119465;-77
2022/11/20 13:55:50;;;;;;;1.00;0.90;;;11.60;45.50;;;;;;20734;6770;117492;-78
2022/11/20 13:58:35;;;;;;;1.02;1.02;;;11.30;46.40;;;;;;20654;6745;305714;-72
2022/11/20 14:01:10;;;;;;;1.00;0.90;;;11.50;44.90;;;;;;20753;6820;116898;-76